UKLL Airport Information

Runway Information
Runway 13 Length 10843 ft width 148 ft
Elevation 1071 ft Threshold 0 ft Heading 136
Runway 31 Length 10843 ft Width 148 ft
Elevation 1055 ft Threshold 0 ft Heading 316
Airport Frequencies
Type APP Name RADAR Frequency 126 MHZ
Type ATIS Name ATIS Frequency 128.7 MHZ
Type TWR Name TWR Frequency 128 MHZ
Airport Navaids
Type VOR-DME Name Lviv Frequency 115500 KHZ
Type NDB Name Lviv Frequency 315 KHZ
Type NDB Name Lviv Frequency 315 KHZ
Airport Weather Information & NOTAM
ADDS - METARS form results

(0423 UTC 13 December 2018)
Data provider http://aviationweather.gov/metar/data/
 
METAR text: UKLL 130400Z 33005MPS 9999 -SN OVC006 M01/M01 Q1017 R31/591018 NOSIG
Conditions at: UKLL (LVIV , UA) observed 0400 UTC 13 December 2018
Temperature: -1.0°C (30°F)
Dewpoint: -1.0°C (30°F) [RH = 100%]
Pressure (altimeter): 30.03 inches Hg (1017.0 mb)
Winds: from the NNW (330 degrees) at 12 MPH (10 knots; 5.1 m/s)
Visibility: 6 or more miles (10+ km)
Ceiling: 600 feet AGL
Clouds: overcast cloud deck at 600 feet AGL
Weather: -SN  (light snow)

METAR text: UKLL 130330Z 33005MPS 9000 -SN OVC006 M01/M02 Q1017 R31/591018 NOSIG
Conditions at: UKLL (LVIV , UA) observed 0330 UTC 13 December 2018
Temperature: -1.0°C (30°F)
Dewpoint: -2.0°C (28°F) [RH = 93%]
Pressure (altimeter): 30.03 inches Hg (1017.0 mb)
Winds: from the NNW (330 degrees) at 12 MPH (10 knots; 5.1 m/s)
Visibility: 6 miles ( 9 km)
Ceiling: 600 feet AGL
Clouds: overcast cloud deck at 600 feet AGL
Weather: -SN  (light snow)

Forecast for: UKLL (LVIV , UA)
Text: TAF UKLL 122304Z 1300/1324 33004MPS 2100 -SN BR OVC004 TXM00/1312Z TNM01/1303Z
Forecast period: 0000 UTC 13 December 2018 to 0000 UTC 14 December 2018
Forecast type: FROM: standard forecast or significant change
Winds: from the NNW (330 degrees) at 9 MPH (8 knots; 4.1 m/s)
Visibility: 1.30 miles (2.09 km)
Ceiling: 400 feet AGL
Clouds: overcast cloud deck at 400 feet AGL
Weather: -SN BR  (light snow, mist)
Text: TEMPO 1300/1309 0400 SHSN FZFG BKN002 BKN015CB
Forecast period: 0000 to 0900 UTC 13 December 2018
Forecast type: TEMPORARY: The following changes expected for less than half the time period
Visibility: 0.25 miles (0.40 km)
Ceiling: 200 feet AGL
Clouds: broken clouds at 200 feet AGL
broken clouds at 1500 feet AGL
Weather: SHSN FZFG  (snow showers, freezing fog)
Text: TEMPO 1309/1324 36005MPS 1100 SHSN BKN002 BKN015CB
Forecast period: 0900 UTC 13 December 2018 to 0000 UTC 14 December 2018
Forecast type: TEMPORARY: The following changes expected for less than half the time period
Winds: from the N (360 degrees) at 12 MPH (10 knots; 5.1 m/s)
Visibility: 0.68 miles (1.09 km)
Ceiling: 200 feet AGL
Clouds: broken clouds at 200 feet AGL
broken clouds at 1500 feet AGL
Weather: SHSN  (snow showers)